sensor_id;sensor_type;location;lat;lon;timestamp;temperature;humidity
7844;DHT22;3967;48.702;9.326;2023-07-13T00:01:32;23.40;70.30
7844;DHT22;3967;48.702;9.326;2023-07-13T00:03:59;23.40;71.40
7844;DHT22;3967;48.702;9.326;2023-07-13T00:06:26;23.40;71.50
7844;DHT22;3967;48.702;9.326;2023-07-13T00:08:56;23.40;71.80
7844;DHT22;3967;48.702;9.326;2023-07-13T00:11:23;23.40;71.60
7844;DHT22;3967;48.702;9.326;2023-07-13T00:13:50;23.40;70.80
7844;DHT22;3967;48.702;9.326;2023-07-13T00:16:17;23.40;70.10
7844;DHT22;3967;48.702;9.326;2023-07-13T00:18:46;23.50;69.70
7844;DHT22;3967;48.702;9.326;2023-07-13T00:21:13;23.40;69.60
7844;DHT22;3967;48.702;9.326;2023-07-13T00:23:42;23.30;69.10
7844;DHT22;3967;48.702;9.326;2023-07-13T00:26:10;23.20;69.10
7844;DHT22;3967;48.702;9.326;2023-07-13T00:28:39;23.00;67.60
7844;DHT22;3967;48.702;9.326;2023-07-13T00:31:07;23.00;68.10
7844;DHT22;3967;48.702;9.326;2023-07-13T00:33:35;23.10;68.40
7844;DHT22;3967;48.702;9.326;2023-07-13T00:36:02;23.00;68.20
7844;DHT22;3967;48.702;9.326;2023-07-13T00:38:29;23.10;67.70
7844;DHT22;3967;48.702;9.326;2023-07-13T00:40:56;23.00;67.20
7844;DHT22;3967;48.702;9.326;2023-07-13T00:43:27;22.90;66.50
7844;DHT22;3967;48.702;9.326;2023-07-13T00:46:15;22.90;65.90
7844;DHT22;3967;48.702;9.326;2023-07-13T00:48:43;22.90;65.50
7844;DHT22;3967;48.702;9.326;2023-07-13T00:51:12;22.90;65.00
7844;DHT22;3967;48.702;9.326;2023-07-13T00:53:39;22.80;65.10
7844;DHT22;3967;48.702;9.326;2023-07-13T00:56:06;22.70;65.50
7844;DHT22;3967;48.702;9.326;2023-07-13T00:58:35;22.70;65.60
7844;DHT22;3967;48.702;9.326;2023-07-13T01:01:02;22.80;65.80
7844;DHT22;3967;48.702;9.326;2023-07-13T01:03:29;22.80;65.10
7844;DHT22;3967;48.702;9.326;2023-07-13T01:05:56;22.70;65.40
7844;DHT22;3967;48.702;9.326;2023-07-13T01:08:23;22.50;65.70
7844;DHT22;3967;48.702;9.326;2023-07-13T01:10:54;22.60;66.10
7844;DHT22;3967;48.702;9.326;2023-07-13T01:13:22;22.60;66.00
7844;DHT22;3967;48.702;9.326;2023-07-13T01:15:50;22.60;66.20
7844;DHT22;3967;48.702;9.326;2023-07-13T01:18:23;22.60;66.40
7844;DHT22;3967;48.702;9.326;2023-07-13T01:23:22;22.60;66.00
7844;DHT22;3967;48.702;9.326;2023-07-13T01:25:49;22.60;65.50
7844;DHT22;3967;48.702;9.326;2023-07-13T01:28:16;22.50;65.40
7844;DHT22;3967;48.702;9.326;2023-07-13T01:30:45;22.60;65.70
7844;DHT22;3967;48.702;9.326;2023-07-13T01:33:14;22.50;65.80
7844;DHT22;3967;48.702;9.326;2023-07-13T01:35:41;22.60;65.80
7844;DHT22;3967;48.702;9.326;2023-07-13T01:38:08;22.60;65.90
7844;DHT22;3967;48.702;9.326;2023-07-13T01:40:36;22.60;66.00
7844;DHT22;3967;48.702;9.326;2023-07-13T01:43:04;22.50;66.70
7844;DHT22;3967;48.702;9.326;2023-07-13T01:45:31;22.50;66.20
7844;DHT22;3967;48.702;9.326;2023-07-13T01:47:57;22.50;65.70
7844;DHT22;3967;48.702;9.326;2023-07-13T01:50:25;22.50;65.80
7844;DHT22;3967;48.702;9.326;2023-07-13T01:52:52;22.40;68.00
7844;DHT22;3967;48.702;9.326;2023-07-13T01:55:20;22.30;69.50
7844;DHT22;3967;48.702;9.326;2023-07-13T01:57:48;22.30;69.70
7844;DHT22;3967;48.702;9.326;2023-07-13T02:00:15;22.30;69.80
7844;DHT22;3967;48.702;9.326;2023-07-13T02:02:42;22.20;70.10
7844;DHT22;3967;48.702;9.326;2023-07-13T02:05:12;22.20;70.20
7844;DHT22;3967;48.702;9.326;2023-07-13T02:07:40;22.20;70.20
7844;DHT22;3967;48.702;9.326;2023-07-13T02:10:08;22.10;70.70
7844;DHT22;3967;48.702;9.326;2023-07-13T02:12:36;22.10;71.20
7844;DHT22;3967;48.702;9.326;2023-07-13T02:15:03;22.10;70.60
7844;DHT22;3967;48.702;9.326;2023-07-13T02:17:30;22.10;70.30
7844;DHT22;3967;48.702;9.326;2023-07-13T02:19:58;22.10;70.10
7844;DHT22;3967;48.702;9.326;2023-07-13T02:22:24;22.00;69.90
7844;DHT22;3967;48.702;9.326;2023-07-13T02:24:51;22.00;69.80
7844;DHT22;3967;48.702;9.326;2023-07-13T02:27:18;21.90;69.80
7844;DHT22;3967;48.702;9.326;2023-07-13T02:29:45;21.80;69.40
7844;DHT22;3967;48.702;9.326;2023-07-13T02:32:12;21.80;69.30
7844;DHT22;3967;48.702;9.326;2023-07-13T02:34:40;21.80;69.30
7844;DHT22;3967;48.702;9.326;2023-07-13T02:37:08;21.80;69.10
7844;DHT22;3967;48.702;9.326;2023-07-13T02:39:34;21.80;69.00
7844;DHT22;3967;48.702;9.326;2023-07-13T02:42:01;21.80;69.10
7844;DHT22;3967;48.702;9.326;2023-07-13T02:44:28;21.80;69.30
7844;DHT22;3967;48.702;9.326;2023-07-13T02:46:54;21.80;69.50
7844;DHT22;3967;48.702;9.326;2023-07-13T02:49:21;21.80;70.00
7844;DHT22;3967;48.702;9.326;2023-07-13T02:51:48;21.70;69.60
7844;DHT22;3967;48.702;9.326;2023-07-13T02:54:15;21.70;69.50
7844;DHT22;3967;48.702;9.326;2023-07-13T02:56:42;21.70;70.20
7844;DHT22;3967;48.702;9.326;2023-07-13T02:59:10;21.60;70.20
7844;DHT22;3967;48.702;9.326;2023-07-13T03:01:37;21.50;70.60
7844;DHT22;3967;48.702;9.326;2023-07-13T03:04:04;21.60;70.80
7844;DHT22;3967;48.702;9.326;2023-07-13T03:06:32;21.60;71.10
7844;DHT22;3967;48.702;9.326;2023-07-13T03:08:59;21.60;71.50
7844;DHT22;3967;48.702;9.326;2023-07-13T03:11:26;21.50;71.40
7844;DHT22;3967;48.702;9.326;2023-07-13T03:13:54;21.50;72.30
7844;DHT22;3967;48.702;9.326;2023-07-13T03:16:21;21.40;71.80
7844;DHT22;3967;48.702;9.326;2023-07-13T03:18:48;21.40;72.30
7844;DHT22;3967;48.702;9.326;2023-07-13T03:21:15;21.40;72.40
7844;DHT22;3967;48.702;9.326;2023-07-13T03:23:42;21.30;72.80
7844;DHT22;3967;48.702;9.326;2023-07-13T03:26:12;21.20;73.70
7844;DHT22;3967;48.702;9.326;2023-07-13T03:28:40;21.20;74.00
7844;DHT22;3967;48.702;9.326;2023-07-13T03:31:16;21.20;74.10
7844;DHT22;3967;48.702;9.326;2023-07-13T03:33:44;21.10;74.70
7844;DHT22;3967;48.702;9.326;2023-07-13T03:36:15;21.10;74.80
7844;DHT22;3967;48.702;9.326;2023-07-13T03:38:50;21.10;74.90
7844;DHT22;3967;48.702;9.326;2023-07-13T03:41:17;21.10;74.90
7844;DHT22;3967;48.702;9.326;2023-07-13T03:43:44;21.20;75.10
7844;DHT22;3967;48.702;9.326;2023-07-13T03:46:11;21.10;75.30
7844;DHT22;3967;48.702;9.326;2023-07-13T03:48:38;21.10;74.80
7844;DHT22;3967;48.702;9.326;2023-07-13T03:51:07;21.10;75.00
7844;DHT22;3967;48.702;9.326;2023-07-13T03:53:37;21.10;75.70
7844;DHT22;3967;48.702;9.326;2023-07-13T03:56:05;21.00;76.00
7844;DHT22;3967;48.702;9.326;2023-07-13T03:58:33;21.00;75.90
7844;DHT22;3967;48.702;9.326;2023-07-13T04:01:01;20.90;76.90
7844;DHT22;3967;48.702;9.326;2023-07-13T04:03:29;20.90;77.10
7844;DHT22;3967;48.702;9.326;2023-07-13T04:06:00;20.80;77.00
7844;DHT22;3967;48.702;9.326;2023-07-13T04:08:29;20.90;77.00
7844;DHT22;3967;48.702;9.326;2023-07-13T04:10:57;20.90;76.20
7844;DHT22;3967;48.702;9.326;2023-07-13T04:13:25;20.80;76.80
7844;DHT22;3967;48.702;9.326;2023-07-13T04:15:52;20.90;76.80
7844;DHT22;3967;48.702;9.326;2023-07-13T04:18:20;21.00;76.20
7844;DHT22;3967;48.702;9.326;2023-07-13T04:20:48;21.00;76.00
7844;DHT22;3967;48.702;9.326;2023-07-13T04:23:16;20.90;76.10
7844;DHT22;3967;48.702;9.326;2023-07-13T04:25:47;21.10;75.60
7844;DHT22;3967;48.702;9.326;2023-07-13T04:28:16;21.10;75.00
7844;DHT22;3967;48.702;9.326;2023-07-13T04:30:44;21.20;74.70
7844;DHT22;3967;48.702;9.326;2023-07-13T04:33:11;21.10;74.20
7844;DHT22;3967;48.702;9.326;2023-07-13T04:35:38;21.20;73.60
7844;DHT22;3967;48.702;9.326;2023-07-13T04:38:05;21.20;73.70
7844;DHT22;3967;48.702;9.326;2023-07-13T04:40:32;21.30;73.90
7844;DHT22;3967;48.702;9.326;2023-07-13T04:42:59;21.30;73.60
7844;DHT22;3967;48.702;9.326;2023-07-13T04:45:26;21.10;73.20
7844;DHT22;3967;48.702;9.326;2023-07-13T04:47:53;21.00;72.80
7844;DHT22;3967;48.702;9.326;2023-07-13T04:50:20;21.10;73.10
7844;DHT22;3967;48.702;9.326;2023-07-13T04:52:50;21.10;72.90
7844;DHT22;3967;48.702;9.326;2023-07-13T04:55:18;21.20;72.60
7844;DHT22;3967;48.702;9.326;2023-07-13T04:57:46;21.10;72.90
7844;DHT22;3967;48.702;9.326;2023-07-13T05:00:13;21.10;73.20
7844;DHT22;3967;48.702;9.326;2023-07-13T05:02:44;21.20;73.50
7844;DHT22;3967;48.702;9.326;2023-07-13T05:05:12;21.30;73.80
7844;DHT22;3967;48.702;9.326;2023-07-13T05:07:39;21.30;73.50
7844;DHT22;3967;48.702;9.326;2023-07-13T05:10:07;21.30;73.80
7844;DHT22;3967;48.702;9.326;2023-07-13T05:12:34;21.30;73.80
7844;DHT22;3967;48.702;9.326;2023-07-13T05:15:02;21.20;74.30
7844;DHT22;3967;48.702;9.326;2023-07-13T05:17:29;21.20;74.00
7844;DHT22;3967;48.702;9.326;2023-07-13T05:19:56;21.20;72.90
7844;DHT22;3967;48.702;9.326;2023-07-13T05:22:23;21.20;72.00
7844;DHT22;3967;48.702;9.326;2023-07-13T05:24:49;21.20;72.00
7844;DHT22;3967;48.702;9.326;2023-07-13T05:27:16;21.30;72.00
7844;DHT22;3967;48.702;9.326;2023-07-13T05:29:43;21.30;72.30
7844;DHT22;3967;48.702;9.326;2023-07-13T05:32:10;21.10;73.30
7844;DHT22;3967;48.702;9.326;2023-07-13T05:34:37;21.20;73.10
7844;DHT22;3967;48.702;9.326;2023-07-13T05:37:04;21.30;72.90
7844;DHT22;3967;48.702;9.326;2023-07-13T05:39:31;21.30;73.10
7844;DHT22;3967;48.702;9.326;2023-07-13T05:41:57;21.40;72.50
7844;DHT22;3967;48.702;9.326;2023-07-13T05:44:24;21.40;71.50
7844;DHT22;3967;48.702;9.326;2023-07-13T05:46:51;21.40;71.70
7844;DHT22;3967;48.702;9.326;2023-07-13T05:49:17;21.40;70.70
7844;DHT22;3967;48.702;9.326;2023-07-13T05:51:44;21.50;70.20
7844;DHT22;3967;48.702;9.326;2023-07-13T05:54:11;21.60;70.10
7844;DHT22;3967;48.702;9.326;2023-07-13T05:56:38;21.60;70.60
7844;DHT22;3967;48.702;9.326;2023-07-13T05:59:04;21.60;70.60
7844;DHT22;3967;48.702;9.326;2023-07-13T06:01:31;21.70;70.60
7844;DHT22;3967;48.702;9.326;2023-07-13T06:03:58;21.60;69.30
7844;DHT22;3967;48.702;9.326;2023-07-13T06:06:25;21.50;68.60
7844;DHT22;3967;48.702;9.326;2023-07-13T06:08:52;21.60;69.10
7844;DHT22;3967;48.702;9.326;2023-07-13T06:11:21;21.40;68.80
7844;DHT22;3967;48.702;9.326;2023-07-13T06:13:49;21.40;68.60
7844;DHT22;3967;48.702;9.326;2023-07-13T06:16:16;21.60;68.80
7844;DHT22;3967;48.702;9.326;2023-07-13T06:18:43;21.60;69.40
7844;DHT22;3967;48.702;9.326;2023-07-13T06:21:14;21.70;68.70
7844;DHT22;3967;48.702;9.326;2023-07-13T06:23:40;21.80;68.30
7844;DHT22;3967;48.702;9.326;2023-07-13T06:26:08;22.00;67.50
7844;DHT22;3967;48.702;9.326;2023-07-13T06:28:36;22.10;65.90
7844;DHT22;3967;48.702;9.326;2023-07-13T06:31:08;22.30;65.90
7844;DHT22;3967;48.702;9.326;2023-07-13T06:33:36;22.50;65.10
7844;DHT22;3967;48.702;9.326;2023-07-13T06:36:04;22.50;63.30
7844;DHT22;3967;48.702;9.326;2023-07-13T06:38:31;22.60;63.40
7844;DHT22;3967;48.702;9.326;2023-07-13T06:40:58;22.90;62.70
7844;DHT22;3967;48.702;9.326;2023-07-13T06:43:25;22.70;61.20
7844;DHT22;3967;48.702;9.326;2023-07-13T06:45:55;22.80;62.00
7844;DHT22;3967;48.702;9.326;2023-07-13T06:48:22;22.70;62.30
7844;DHT22;3967;48.702;9.326;2023-07-13T06:50:49;22.70;62.00
7844;DHT22;3967;48.702;9.326;2023-07-13T06:53:18;22.90;62.00
7844;DHT22;3967;48.702;9.326;2023-07-13T06:55:45;23.10;62.20
7844;DHT22;3967;48.702;9.326;2023-07-13T06:58:14;23.40;61.30
7844;DHT22;3967;48.702;9.326;2023-07-13T07:00:41;23.50;60.80
7844;DHT22;3967;48.702;9.326;2023-07-13T07:03:08;23.80;59.30
7844;DHT22;3967;48.702;9.326;2023-07-13T07:05:35;23.90;59.90
7844;DHT22;3967;48.702;9.326;2023-07-13T07:08:01;24.00;58.10
7844;DHT22;3967;48.702;9.326;2023-07-13T07:10:29;24.20;56.70
7844;DHT22;3967;48.702;9.326;2023-07-13T07:12:56;24.30;56.00
7844;DHT22;3967;48.702;9.326;2023-07-13T07:15:23;24.70;56.20
7844;DHT22;3967;48.702;9.326;2023-07-13T07:17:50;24.40;55.70
7844;DHT22;3967;48.702;9.326;2023-07-13T07:20:17;24.50;57.10
7844;DHT22;3967;48.702;9.326;2023-07-13T07:22:44;24.40;54.90
7844;DHT22;3967;48.702;9.326;2023-07-13T07:25:10;24.50;55.50
7844;DHT22;3967;48.702;9.326;2023-07-13T07:27:38;24.70;55.30
7844;DHT22;3967;48.702;9.326;2023-07-13T07:30:08;24.80;54.80
7844;DHT22;3967;48.702;9.326;2023-07-13T07:32:37;25.00;54.50
7844;DHT22;3967;48.702;9.326;2023-07-13T07:35:07;25.00;53.80
7844;DHT22;3967;48.702;9.326;2023-07-13T07:37:34;25.40;54.30
7844;DHT22;3967;48.702;9.326;2023-07-13T07:40:04;25.50;53.80
7844;DHT22;3967;48.702;9.326;2023-07-13T07:42:34;25.40;53.80
7844;DHT22;3967;48.702;9.326;2023-07-13T07:45:01;25.60;52.40
7844;DHT22;3967;48.702;9.326;2023-07-13T07:47:28;25.10;52.90
7844;DHT22;3967;48.702;9.326;2023-07-13T07:49:55;25.70;53.80
7844;DHT22;3967;48.702;9.326;2023-07-13T07:52:22;25.60;52.90
7844;DHT22;3967;48.702;9.326;2023-07-13T07:54:48;25.80;51.70
7844;DHT22;3967;48.702;9.326;2023-07-13T07:57:18;25.80;51.70
7844;DHT22;3967;48.702;9.326;2023-07-13T08:00:05;25.50;51.90
7844;DHT22;3967;48.702;9.326;2023-07-13T08:02:35;25.50;52.20
7844;DHT22;3967;48.702;9.326;2023-07-13T08:05:05;25.60;52.70
7844;DHT22;3967;48.702;9.326;2023-07-13T08:07:36;25.60;51.80
7844;DHT22;3967;48.702;9.326;2023-07-13T08:10:04;25.80;51.50
7844;DHT22;3967;48.702;9.326;2023-07-13T08:12:35;26.30;52.10
7844;DHT22;3967;48.702;9.326;2023-07-13T08:15:08;26.30;50.90
7844;DHT22;3967;48.702;9.326;2023-07-13T08:17:35;26.50;50.10
7844;DHT22;3967;48.702;9.326;2023-07-13T08:20:04;26.70;50.40
7844;DHT22;3967;48.702;9.326;2023-07-13T08:22:30;26.70;48.80
7844;DHT22;3967;48.702;9.326;2023-07-13T08:24:59;26.20;49.90
7844;DHT22;3967;48.702;9.326;2023-07-13T08:27:27;26.70;49.40
7844;DHT22;3967;48.702;9.326;2023-07-13T08:29:55;26.40;49.30
7844;DHT22;3967;48.702;9.326;2023-07-13T08:32:22;26.60;49.10
7844;DHT22;3967;48.702;9.326;2023-07-13T08:34:50;26.70;49.00
7844;DHT22;3967;48.702;9.326;2023-07-13T08:37:17;27.00;48.50
7844;DHT22;3967;48.702;9.326;2023-07-13T08:39:44;27.10;47.60
7844;DHT22;3967;48.702;9.326;2023-07-13T08:42:16;27.30;47.50
7844;DHT22;3967;48.702;9.326;2023-07-13T08:47:35;26.70;47.60
7844;DHT22;3967;48.702;9.326;2023-07-13T08:50:04;26.60;47.80
7844;DHT22;3967;48.702;9.326;2023-07-13T08:52:41;26.70;48.30
7844;DHT22;3967;48.702;9.326;2023-07-13T08:55:20;26.50;47.20
7844;DHT22;3967;48.702;9.326;2023-07-13T08:58:00;26.80;47.50
7844;DHT22;3967;48.702;9.326;2023-07-13T09:00:39;27.30;48.70
7844;DHT22;3967;48.702;9.326;2023-07-13T09:03:18;27.70;45.80
7844;DHT22;3967;48.702;9.326;2023-07-13T09:05:52;27.30;46.00
7844;DHT22;3967;48.702;9.326;2023-07-13T09:11:15;27.10;46.10
7844;DHT22;3967;48.702;9.326;2023-07-13T09:16:26;27.60;45.50
7844;DHT22;3967;48.702;9.326;2023-07-13T09:19:00;27.80;44.80
7844;DHT22;3967;48.702;9.326;2023-07-13T09:21:36;27.70;46.60
7844;DHT22;3967;48.702;9.326;2023-07-13T09:26:56;25.70;45.80
7844;DHT22;3967;48.702;9.326;2023-07-13T09:29:28;26.30;47.20
7844;DHT22;3967;48.702;9.326;2023-07-13T09:31:58;26.70;47.10
7844;DHT22;3967;48.702;9.326;2023-07-13T09:34:28;26.90;46.30
7844;DHT22;3967;48.702;9.326;2023-07-13T09:39:49;27.20;47.60
7844;DHT22;3967;48.702;9.326;2023-07-13T09:42:18;27.10;46.00
7844;DHT22;3967;48.702;9.326;2023-07-13T09:44:53;27.10;46.80
7844;DHT22;3967;48.702;9.326;2023-07-13T09:47:31;27.40;47.40
7844;DHT22;3967;48.702;9.326;2023-07-13T09:50:02;27.50;46.00
7844;DHT22;3967;48.702;9.326;2023-07-13T09:52:50;27.40;45.40
7844;DHT22;3967;48.702;9.326;2023-07-13T09:55:34;27.50;46.10
7844;DHT22;3967;48.702;9.326;2023-07-13T10:00:41;27.80;44.30
7844;DHT22;3967;48.702;9.326;2023-07-13T10:05:44;27.30;44.80
7844;DHT22;3967;48.702;9.326;2023-07-13T10:08:26;27.70;44.40
7844;DHT22;3967;48.702;9.326;2023-07-13T10:10:58;28.30;42.80
7844;DHT22;3967;48.702;9.326;2023-07-13T10:13:33;28.30;43.00
7844;DHT22;3967;48.702;9.326;2023-07-13T10:16:01;28.60;43.70
7844;DHT22;3967;48.702;9.326;2023-07-13T10:18:32;28.80;44.60
7844;DHT22;3967;48.702;9.326;2023-07-13T10:21:21;28.50;44.50
7844;DHT22;3967;48.702;9.326;2023-07-13T10:24:17;28.20;44.40
7844;DHT22;3967;48.702;9.326;2023-07-13T10:27:01;28.30;45.10
7844;DHT22;3967;48.702;9.326;2023-07-13T10:29:37;28.20;43.80
7844;DHT22;3967;48.702;9.326;2023-07-13T10:32:11;27.90;43.80
7844;DHT22;3967;48.702;9.326;2023-07-13T10:34:40;28.10;44.50
7844;DHT22;3967;48.702;9.326;2023-07-13T10:37:16;27.90;42.90
7844;DHT22;3967;48.702;9.326;2023-07-13T10:39:45;28.10;43.30
7844;DHT22;3967;48.702;9.326;2023-07-13T10:42:17;28.40;42.70
7844;DHT22;3967;48.702;9.326;2023-07-13T10:44:45;28.60;42.80
7844;DHT22;3967;48.702;9.326;2023-07-13T10:47:14;28.10;43.40
7844;DHT22;3967;48.702;9.326;2023-07-13T10:49:42;28.10;46.30
7844;DHT22;3967;48.702;9.326;2023-07-13T10:52:50;28.20;45.10
7844;DHT22;3967;48.702;9.326;2023-07-13T10:58:21;28.50;44.10
7844;DHT22;3967;48.702;9.326;2023-07-13T11:01:08;28.40;43.80
7844;DHT22;3967;48.702;9.326;2023-07-13T11:03:38;28.20;42.60
7844;DHT22;3967;48.702;9.326;2023-07-13T11:06:17;28.30;42.40
7844;DHT22;3967;48.702;9.326;2023-07-13T11:08:58;28.30;43.80
7844;DHT22;3967;48.702;9.326;2023-07-13T11:24:15;28.50;43.40
7844;DHT22;3967;48.702;9.326;2023-07-13T11:26:51;28.70;44.50
7844;DHT22;3967;48.702;9.326;2023-07-13T11:31:59;29.10;42.60
7844;DHT22;3967;48.702;9.326;2023-07-13T11:34:27;29.10;41.00
7844;DHT22;3967;48.702;9.326;2023-07-13T11:36:56;28.90;40.90
7844;DHT22;3967;48.702;9.326;2023-07-13T11:39:31;28.20;41.30
7844;DHT22;3967;48.702;9.326;2023-07-13T11:42:05;28.40;43.00
7844;DHT22;3967;48.702;9.326;2023-07-13T11:44:33;28.80;42.00
7844;DHT22;3967;48.702;9.326;2023-07-13T11:47:14;29.10;41.70
7844;DHT22;3967;48.702;9.326;2023-07-13T11:49:48;29.10;41.60
7844;DHT22;3967;48.702;9.326;2023-07-13T11:52:26;29.20;42.20
7844;DHT22;3967;48.702;9.326;2023-07-13T11:54:55;28.80;42.00
7844;DHT22;3967;48.702;9.326;2023-07-13T11:59:58;29.40;42.10
7844;DHT22;3967;48.702;9.326;2023-07-13T12:02:39;29.60;42.20
7844;DHT22;3967;48.702;9.326;2023-07-13T12:05:12;29.70;42.20
7844;DHT22;3967;48.702;9.326;2023-07-13T12:07:39;29.40;40.80
7844;DHT22;3967;48.702;9.326;2023-07-13T12:15:22;29.40;40.80
7844;DHT22;3967;48.702;9.326;2023-07-13T12:17:50;29.50;41.80
7844;DHT22;3967;48.702;9.326;2023-07-13T12:20:25;29.30;41.50
7844;DHT22;3967;48.702;9.326;2023-07-13T12:22:53;29.10;42.00
7844;DHT22;3967;48.702;9.326;2023-07-13T12:25:22;29.00;42.70
7844;DHT22;3967;48.702;9.326;2023-07-13T12:27:50;28.70;43.60
7844;DHT22;3967;48.702;9.326;2023-07-13T12:32:58;28.80;43.90
7844;DHT22;3967;48.702;9.326;2023-07-13T12:35:29;28.70;43.70
7844;DHT22;3967;48.702;9.326;2023-07-13T12:38:02;28.80;42.30
7844;DHT22;3967;48.702;9.326;2023-07-13T12:40:33;29.00;41.90
7844;DHT22;3967;48.702;9.326;2023-07-13T12:43:03;28.80;41.60
7844;DHT22;3967;48.702;9.326;2023-07-13T12:45:31;29.10;42.20
7844;DHT22;3967;48.702;9.326;2023-07-13T12:48:03;28.90;42.10
7844;DHT22;3967;48.702;9.326;2023-07-13T12:50:37;28.60;42.00
7844;DHT22;3967;48.702;9.326;2023-07-13T12:53:06;28.40;43.40
7844;DHT22;3967;48.702;9.326;2023-07-13T12:55:53;28.60;43.90
7844;DHT22;3967;48.702;9.326;2023-07-13T13:00:56;28.40;43.60
7844;DHT22;3967;48.702;9.326;2023-07-13T13:03:33;28.40;43.40
7844;DHT22;3967;48.702;9.326;2023-07-13T13:06:05;28.50;42.80
7844;DHT22;3967;48.702;9.326;2023-07-13T13:08:33;28.30;41.60
7844;DHT22;3967;48.702;9.326;2023-07-13T13:11:01;28.40;42.90
7844;DHT22;3967;48.702;9.326;2023-07-13T13:13:28;28.50;42.10
7844;DHT22;3967;48.702;9.326;2023-07-13T13:15:55;28.90;41.90
7844;DHT22;3967;48.702;9.326;2023-07-13T13:18:23;29.00;41.50
7844;DHT22;3967;48.702;9.326;2023-07-13T13:20:51;29.10;41.40
7844;DHT22;3967;48.702;9.326;2023-07-13T13:23:20;29.20;42.30
7844;DHT22;3967;48.702;9.326;2023-07-13T13:25:49;28.60;42.70
7844;DHT22;3967;48.702;9.326;2023-07-13T13:28:19;28.40;42.60
7844;DHT22;3967;48.702;9.326;2023-07-13T13:30:48;28.50;43.10
7844;DHT22;3967;48.702;9.326;2023-07-13T13:33:17;28.40;42.40
7844;DHT22;3967;48.702;9.326;2023-07-13T13:35:45;28.20;42.00
7844;DHT22;3967;48.702;9.326;2023-07-13T13:40:45;28.50;41.10
7844;DHT22;3967;48.702;9.326;2023-07-13T13:45:43;29.00;41.70
7844;DHT22;3967;48.702;9.326;2023-07-13T13:48:18;29.00;41.80
7844;DHT22;3967;48.702;9.326;2023-07-13T13:50:47;28.60;41.40
7844;DHT22;3967;48.702;9.326;2023-07-13T13:53:15;28.50;41.60
7844;DHT22;3967;48.702;9.326;2023-07-13T13:55:42;28.60;42.40
7844;DHT22;3967;48.702;9.326;2023-07-13T13:58:09;28.50;41.00
7844;DHT22;3967;48.702;9.326;2023-07-13T14:00:37;28.30;40.90
7844;DHT22;3967;48.702;9.326;2023-07-13T14:03:17;28.40;40.80
7844;DHT22;3967;48.702;9.326;2023-07-13T14:05:45;28.50;40.50
7844;DHT22;3967;48.702;9.326;2023-07-13T14:08:20;28.60;41.00
7844;DHT22;3967;48.702;9.326;2023-07-13T14:10:49;28.50;41.50
7844;DHT22;3967;48.702;9.326;2023-07-13T14:13:23;28.30;40.60
7844;DHT22;3967;48.702;9.326;2023-07-13T14:15:53;28.10;41.20
7844;DHT22;3967;48.702;9.326;2023-07-13T14:18:21;28.10;42.00
7844;DHT22;3967;48.702;9.326;2023-07-13T14:20:48;28.60;41.80
7844;DHT22;3967;48.702;9.326;2023-07-13T14:23:15;28.70;41.00
7844;DHT22;3967;48.702;9.326;2023-07-13T14:25:47;28.60;41.10
7844;DHT22;3967;48.702;9.326;2023-07-13T14:28:26;28.50;41.00
7844;DHT22;3967;48.702;9.326;2023-07-13T14:30:54;28.40;41.50
7844;DHT22;3967;48.702;9.326;2023-07-13T14:33:23;28.20;41.30
7844;DHT22;3967;48.702;9.326;2023-07-13T14:35:51;28.20;40.90
7844;DHT22;3967;48.702;9.326;2023-07-13T14:38:20;28.30;41.00
7844;DHT22;3967;48.702;9.326;2023-07-13T14:40:47;28.70;41.90
7844;DHT22;3967;48.702;9.326;2023-07-13T14:43:15;28.80;41.00
7844;DHT22;3967;48.702;9.326;2023-07-13T14:45:47;28.70;41.00
7844;DHT22;3967;48.702;9.326;2023-07-13T14:48:20;28.50;40.70
7844;DHT22;3967;48.702;9.326;2023-07-13T14:50:53;28.40;41.10
7844;DHT22;3967;48.702;9.326;2023-07-13T14:53:20;28.30;41.20
7844;DHT22;3967;48.702;9.326;2023-07-13T14:55:47;28.20;41.90
7844;DHT22;3967;48.702;9.326;2023-07-13T14:58:13;28.40;41.90
7844;DHT22;3967;48.702;9.326;2023-07-13T15:00:40;28.50;41.20
7844;DHT22;3967;48.702;9.326;2023-07-13T15:03:18;28.60;41.80
7844;DHT22;3967;48.702;9.326;2023-07-13T15:05:46;28.20;41.50
7844;DHT22;3967;48.702;9.326;2023-07-13T15:08:13;28.10;41.90
7844;DHT22;3967;48.702;9.326;2023-07-13T15:10:39;28.10;41.80
7844;DHT22;3967;48.702;9.326;2023-07-13T15:15:43;28.10;40.80
7844;DHT22;3967;48.702;9.326;2023-07-13T15:18:15;28.30;41.60
7844;DHT22;3967;48.702;9.326;2023-07-13T15:20:44;28.50;41.20
7844;DHT22;3967;48.702;9.326;2023-07-13T15:23:13;28.50;40.90
7844;DHT22;3967;48.702;9.326;2023-07-13T15:25:42;28.30;40.70
7844;DHT22;3967;48.702;9.326;2023-07-13T15:28:10;28.00;41.00
7844;DHT22;3967;48.702;9.326;2023-07-13T15:30:44;27.70;41.70
7844;DHT22;3967;48.702;9.326;2023-07-13T15:33:13;27.80;41.70
7844;DHT22;3967;48.702;9.326;2023-07-13T15:35:40;27.90;41.90
7844;DHT22;3967;48.702;9.326;2023-07-13T15:38:21;28.00;42.90
7844;DHT22;3967;48.702;9.326;2023-07-13T15:40:49;28.10;42.30
7844;DHT22;3967;48.702;9.326;2023-07-13T15:43:18;28.10;42.30
7844;DHT22;3967;48.702;9.326;2023-07-13T15:45:46;27.80;42.10
7844;DHT22;3967;48.702;9.326;2023-07-13T15:50:55;27.70;42.40
7844;DHT22;3967;48.702;9.326;2023-07-13T15:53:32;27.60;42.50
7844;DHT22;3967;48.702;9.326;2023-07-13T15:55:59;27.70;43.20
7844;DHT22;3967;48.702;9.326;2023-07-13T15:58:28;27.60;42.90
7844;DHT22;3967;48.702;9.326;2023-07-13T16:00:55;27.60;44.10
7844;DHT22;3967;48.702;9.326;2023-07-13T16:03:22;27.90;43.10
7844;DHT22;3967;48.702;9.326;2023-07-13T16:05:51;28.20;43.30
7844;DHT22;3967;48.702;9.326;2023-07-13T16:08:33;28.20;42.40
7844;DHT22;3967;48.702;9.326;2023-07-13T16:11:00;28.00;42.90
7844;DHT22;3967;48.702;9.326;2023-07-13T16:13:27;28.10;42.40
7844;DHT22;3967;48.702;9.326;2023-07-13T16:15:54;27.90;42.10
7844;DHT22;3967;48.702;9.326;2023-07-13T16:18:23;28.00;42.30
7844;DHT22;3967;48.702;9.326;2023-07-13T16:20:50;27.60;42.60
7844;DHT22;3967;48.702;9.326;2023-07-13T16:23:18;27.60;42.90
7844;DHT22;3967;48.702;9.326;2023-07-13T16:25:46;27.80;42.60
7844;DHT22;3967;48.702;9.326;2023-07-13T16:28:15;27.70;42.30
7844;DHT22;3967;48.702;9.326;2023-07-13T16:30:42;27.70;42.30
7844;DHT22;3967;48.702;9.326;2023-07-13T16:33:09;27.80;41.80
7844;DHT22;3967;48.702;9.326;2023-07-13T16:35:40;27.80;42.30
7844;DHT22;3967;48.702;9.326;2023-07-13T16:38:18;27.90;41.80
7844;DHT22;3967;48.702;9.326;2023-07-13T16:40:45;27.80;42.00
7844;DHT22;3967;48.702;9.326;2023-07-13T16:43:18;27.80;41.30
7844;DHT22;3967;48.702;9.326;2023-07-13T16:45:50;27.80;41.30
7844;DHT22;3967;48.702;9.326;2023-07-13T16:48:20;27.80;41.30
7844;DHT22;3967;48.702;9.326;2023-07-13T16:50:53;27.90;42.50
7844;DHT22;3967;48.702;9.326;2023-07-13T16:53:28;28.00;42.40
7844;DHT22;3967;48.702;9.326;2023-07-13T16:55:56;28.00;42.10
7844;DHT22;3967;48.702;9.326;2023-07-13T16:58:24;27.80;41.80
7844;DHT22;3967;48.702;9.326;2023-07-13T17:00:52;27.80;41.80
7844;DHT22;3967;48.702;9.326;2023-07-13T17:03:19;27.30;41.80
7844;DHT22;3967;48.702;9.326;2023-07-13T17:05:47;27.20;42.60
7844;DHT22;3967;48.702;9.326;2023-07-13T17:08:27;27.10;42.90
7844;DHT22;3967;48.702;9.326;2023-07-13T17:10:59;27.20;42.70
7844;DHT22;3967;48.702;9.326;2023-07-13T17:13:29;27.30;42.30
7844;DHT22;3967;48.702;9.326;2023-07-13T17:15:56;27.40;42.40
7844;DHT22;3967;48.702;9.326;2023-07-13T17:18:25;27.30;42.50
7844;DHT22;3967;48.702;9.326;2023-07-13T17:20:54;27.10;42.80